Time;durP1;ratioP1;P1;durP2;ratioP2;P2;SDS_P1;SDS_P2;PMS_P1;PMS_P2;Temp;Humidity;BMP_temperature;BMP_pressure;BME280_temperature;BME280_humidity;BME280_pressure;Samples;Min_cycle;Max_cycle;Signal;HPM_P1;HPM_P2
2022/05/01 00:01:39;;;;;;;4.60;2.33;;;17.40;96.70;;;;;;5055105;28;20040;-77
2022/05/01 00:04:08;;;;;;;3.30;2.22;;;17.20;96.70;;;;;;5053380;28;20060;-77
2022/05/01 00:06:36;;;;;;;2.53;1.83;;;17.10;96.70;;;;;;5050775;28;20049;-77
2022/05/01 00:09:04;;;;;;;5.60;2.40;;;17.00;96.70;;;;;;5053896;28;20037;-77
2022/05/01 00:11:32;;;;;;;3.97;2.47;;;17.00;96.70;;;;;;5052575;28;20084;-77
2022/05/01 00:14:01;;;;;;;3.05;2.55;;;17.10;96.70;;;;;;5075226;28;20757;-77
2022/05/01 00:16:29;;;;;;;5.28;2.58;;;17.10;96.70;;;;;;5056099;28;20414;-76
2022/05/01 00:18:57;;;;;;;4.60;2.50;;;17.10;96.70;;;;;;5054008;28;20578;-76
2022/05/01 00:21:25;;;;;;;3.08;2.15;;;17.20;96.70;;;;;;5058054;28;20047;-76
2022/05/01 00:23:53;;;;;;;5.07;2.50;;;17.20;96.70;;;;;;5051573;28;20628;-77
2022/05/01 00:26:21;;;;;;;3.42;2.67;;;17.20;96.70;;;;;;5053346;28;20114;-77
2022/05/01 00:28:49;;;;;;;3.65;2.20;;;17.20;96.70;;;;;;5059540;28;20390;-77
2022/05/01 00:31:19;;;;;;;3.95;3.00;;;17.10;96.70;;;;;;5060321;28;20583;-77
2022/05/01 00:36:33;;;;;;;6.72;2.75;;;17.00;96.70;;;;;;5053992;28;20041;-77
2022/05/01 00:39:03;;;;;;;3.20;2.40;;;17.10;96.70;;;;;;5049489;28;20041;-77
2022/05/01 00:41:32;;;;;;;4.72;2.25;;;17.00;96.70;;;;;;5052918;28;20045;-77
2022/05/01 00:44:03;;;;;;;5.25;2.20;;;16.80;96.70;;;;;;5050064;28;20132;-77
2022/05/01 00:46:35;;;;;;;3.10;2.00;;;16.70;96.70;;;;;;5056752;28;20068;-77
2022/05/01 00:49:05;;;;;;;3.33;2.05;;;16.60;96.70;;;;;;5050208;28;20114;-77
2022/05/01 00:51:36;;;;;;;2.85;1.88;;;16.80;96.70;;;;;;5051981;28;20051;-77
2022/05/01 00:54:07;;;;;;;5.65;2.20;;;16.80;96.70;;;;;;5051517;28;20072;-77
2022/05/01 00:56:39;;;;;;;3.05;2.00;;;16.80;96.70;;;;;;5057764;28;20051;-77
2022/05/01 00:59:08;;;;;;;4.03;2.08;;;16.60;96.70;;;;;;5056397;28;20131;-77
2022/05/01 01:01:41;;;;;;;4.50;2.17;;;16.50;96.70;;;;;;5054824;28;20032;-77
2022/05/01 01:04:09;;;;;;;2.88;2.13;;;16.60;96.70;;;;;;5047409;28;20049;-78
2022/05/01 01:06:38;;;;;;;3.75;2.30;;;16.50;96.70;;;;;;5054655;28;20036;-77
2022/05/01 01:09:07;;;;;;;4.00;2.17;;;16.60;96.70;;;;;;5053712;28;20124;-77
2022/05/01 01:11:36;;;;;;;5.03;2.30;;;16.60;96.70;;;;;;5049886;28;20044;-77
2022/05/01 01:14:05;;;;;;;5.30;2.90;;;16.60;96.70;;;;;;5059018;28;20127;-77
2022/05/01 01:16:34;;;;;;;5.85;2.95;;;16.60;96.70;;;;;;5053477;28;20048;-77
2022/05/01 01:19:04;;;;;;;4.10;3.03;;;16.60;96.70;;;;;;5039715;28;20114;-77
2022/05/01 01:21:34;;;;;;;4.93;3.10;;;16.40;96.70;;;;;;5053123;28;20087;-77
2022/05/01 01:24:05;;;;;;;3.88;2.55;;;16.30;96.70;;;;;;5053586;28;20071;-77
2022/05/01 01:26:34;;;;;;;4.63;2.80;;;16.30;96.70;;;;;;5055523;28;20082;-77
2022/05/01 01:31:40;;;;;;;4.13;2.88;;;16.40;96.70;;;;;;5061068;28;20059;-77
2022/05/01 01:31:52;;;;;;;5.78;2.95;;;16.50;96.70;;;;;;5049770;28;20041;-77
2022/05/01 01:34:25;;;;;;;3.45;2.00;;;16.50;96.70;;;;;;5054756;28;20052;-77
2022/05/01 01:36:55;;;;;;;3.72;2.35;;;16.40;96.70;;;;;;5055233;28;20052;-77
2022/05/01 01:39:23;;;;;;;4.15;2.40;;;16.30;96.70;;;;;;5068186;28;20135;-77
2022/05/01 01:41:54;;;;;;;6.40;2.03;;;16.30;96.70;;;;;;5055531;28;20052;-77
2022/05/01 01:44:23;;;;;;;3.22;2.30;;;16.30;96.70;;;;;;5068303;28;20052;-77
2022/05/01 01:46:51;;;;;;;3.92;2.25;;;16.20;96.70;;;;;;5056181;28;20695;-78
2022/05/01 01:49:19;;;;;;;4.75;2.15;;;16.20;96.70;;;;;;5049193;28;20053;-77
2022/05/01 01:51:47;;;;;;;3.13;1.73;;;16.10;96.70;;;;;;5055573;28;20049;-77
2022/05/01 01:54:17;;;;;;;3.45;2.00;;;16.20;96.70;;;;;;5053079;28;20139;-77
2022/05/01 01:56:45;;;;;;;4.20;2.33;;;16.20;96.70;;;;;;5058776;28;20051;-77
2022/05/01 01:59:14;;;;;;;2.67;1.98;;;16.20;96.70;;;;;;5048806;28;20044;-77
2022/05/01 02:01:43;;;;;;;3.20;2.38;;;16.20;96.70;;;;;;5054691;28;20570;-77
2022/05/01 02:04:12;;;;;;;5.03;2.28;;;16.10;96.70;;;;;;5057885;28;20052;-77
2022/05/01 02:06:40;;;;;;;4.25;2.40;;;16.00;96.70;;;;;;5052929;28;20043;-77
2022/05/01 02:09:08;;;;;;;2.65;2.40;;;15.80;96.70;;;;;;5053024;28;20050;-77
2022/05/01 02:11:39;;;;;;;2.95;2.20;;;15.70;96.70;;;;;;5049899;28;20041;-77
2022/05/01 02:14:10;;;;;;;4.90;2.50;;;15.70;96.70;;;;;;5049394;28;20076;-77
2022/05/01 02:16:39;;;;;;;5.60;2.72;;;15.70;96.70;;;;;;5033946;28;20731;-77
2022/05/01 02:19:08;;;;;;;3.85;2.30;;;15.80;96.70;;;;;;5051408;28;20098;-77
2022/05/01 02:21:36;;;;;;;4.18;2.70;;;15.90;96.70;;;;;;5056254;28;20044;-77
2022/05/01 02:24:07;;;;;;;3.28;2.70;;;15.90;96.70;;;;;;5048465;28;20070;-77
2022/05/01 02:26:37;;;;;;;3.22;2.20;;;15.90;96.70;;;;;;5045581;28;20045;-77
2022/05/01 02:29:10;;;;;;;3.50;2.28;;;15.80;96.70;;;;;;5048068;28;20045;-77
2022/05/01 02:31:40;;;;;;;3.40;2.22;;;15.80;96.70;;;;;;5030646;28;20087;-77
2022/05/01 02:34:09;;;;;;;2.88;2.30;;;15.80;96.70;;;;;;5050545;28;20095;-77
2022/05/01 02:36:38;;;;;;;3.03;1.95;;;15.70;96.70;;;;;;5047474;28;20047;-77
2022/05/01 02:39:06;;;;;;;2.83;2.05;;;15.70;96.70;;;;;;5058782;28;20043;-78
2022/05/01 02:41:35;;;;;;;2.97;2.10;;;15.70;96.70;;;;;;5054570;28;20079;-77
2022/05/01 02:44:05;;;;;;;4.55;2.03;;;15.50;96.70;;;;;;5054527;28;20079;-77
2022/05/01 02:46:34;;;;;;;6.07;2.20;;;15.60;96.70;;;;;;5050517;28;20118;-78
2022/05/01 02:49:04;;;;;;;2.63;2.00;;;15.70;96.70;;;;;;5050023;28;20405;-77
2022/05/01 02:51:33;;;;;;;2.53;2.22;;;15.70;96.70;;;;;;5044979;28;20060;-77
2022/05/01 02:54:04;;;;;;;3.70;1.90;;;15.70;96.70;;;;;;5050747;28;20052;-77
2022/05/01 02:56:33;;;;;;;3.53;2.00;;;15.80;96.70;;;;;;5048330;28;20044;-77
2022/05/01 02:59:02;;;;;;;3.40;1.88;;;15.70;96.70;;;;;;5059708;28;20044;-77
2022/05/01 03:01:32;;;;;;;3.03;2.00;;;15.60;96.70;;;;;;5050883;28;20064;-77
2022/05/01 03:04:00;;;;;;;2.13;1.60;;;15.60;96.70;;;;;;5055909;28;20089;-77
2022/05/01 03:06:29;;;;;;;3.67;2.20;;;15.60;96.70;;;;;;5059832;28;20548;-77
2022/05/01 03:08:58;;;;;;;1.95;1.63;;;15.60;96.70;;;;;;5054375;28;20067;-77
2022/05/01 03:11:26;;;;;;;2.90;2.10;;;15.60;96.70;;;;;;5047273;28;20047;-77
2022/05/01 03:13:55;;;;;;;2.45;1.90;;;15.70;96.70;;;;;;5051205;28;20044;-77
2022/05/01 03:16:23;;;;;;;3.70;2.00;;;15.70;96.70;;;;;;5057551;28;20037;-77
2022/05/01 03:24:27;;;;;;;5.47;2.63;;;15.40;96.70;;;;;;5051344;28;20132;-77
2022/05/01 03:26:55;;;;;;;2.90;1.90;;;15.30;96.70;;;;;;5061755;28;20479;-77
2022/05/01 03:29:23;;;;;;;2.20;1.98;;;15.40;96.70;;;;;;5047385;28;20064;-77
2022/05/01 03:31:52;;;;;;;2.63;1.95;;;15.30;96.70;;;;;;5048349;28;20041;-78
2022/05/01 03:34:23;;;;;;;2.92;2.15;;;15.30;96.70;;;;;;5053876;28;20059;-77
2022/05/01 03:36:53;;;;;;;4.65;2.30;;;15.40;96.70;;;;;;5055287;28;20139;-77
2022/05/01 03:39:22;;;;;;;3.40;2.20;;;15.60;96.70;;;;;;5065871;28;20049;-77
2022/05/01 03:41:50;;;;;;;5.47;2.17;;;15.70;96.70;;;;;;5050964;28;20245;-77
2022/05/01 03:44:19;;;;;;;3.58;2.17;;;15.60;96.70;;;;;;5047815;28;20052;-77
2022/05/01 03:46:47;;;;;;;4.88;2.30;;;15.40;96.70;;;;;;5052229;28;20144;-76
2022/05/01 03:49:16;;;;;;;3.22;2.15;;;15.50;96.70;;;;;;5071657;28;20045;-77
2022/05/01 03:51:46;;;;;;;3.53;2.20;;;15.50;96.70;;;;;;5058622;28;20041;-77
2022/05/01 03:54:15;;;;;;;5.13;2.45;;;15.50;96.70;;;;;;5047264;28;20056;-77
2022/05/01 03:56:43;;;;;;;4.53;2.22;;;15.50;96.70;;;;;;5054311;28;20551;-77
2022/05/01 03:59:11;;;;;;;2.65;2.20;;;15.30;96.70;;;;;;5048792;28;20036;-77
2022/05/01 04:01:40;;;;;;;2.70;2.22;;;15.30;96.70;;;;;;5058633;28;20047;-77
2022/05/01 04:04:08;;;;;;;2.58;2.08;;;15.20;96.70;;;;;;5056880;28;20060;-77
2022/05/01 04:06:37;;;;;;;2.22;1.67;;;15.20;96.70;;;;;;5052658;28;20472;-78
2022/05/01 04:09:07;;;;;;;2.60;1.90;;;15.20;96.70;;;;;;5050402;28;20041;-77
2022/05/01 04:11:35;;;;;;;3.33;1.60;;;15.20;96.70;;;;;;5058823;28;20514;-77
2022/05/01 04:14:03;;;;;;;2.95;1.60;;;15.20;96.70;;;;;;5046541;28;20610;-77
2022/05/01 04:16:32;;;;;;;2.05;1.70;;;15.20;96.70;;;;;;5056291;28;20571;-78
2022/05/01 04:19:00;;;;;;;4.03;2.10;;;15.20;96.70;;;;;;5054353;28;20078;-78
2022/05/01 04:21:28;;;;;;;2.30;1.92;;;15.30;96.70;;;;;;5054022;28;20422;-77
2022/05/01 04:23:57;;;;;;;6.20;1.88;;;15.20;96.70;;;;;;5057272;28;20037;-76
2022/05/01 04:26:27;;;;;;;2.38;1.70;;;15.20;96.70;;;;;;5060085;28;20133;-77
2022/05/01 04:31:42;;;;;;;2.85;1.88;;;15.20;96.70;;;;;;5056338;28;20044;-78
2022/05/01 04:34:10;;;;;;;3.97;1.95;;;15.10;96.70;;;;;;5061547;28;20045;-77
2022/05/01 04:36:40;;;;;;;3.63;1.92;;;15.10;96.70;;;;;;5058540;28;20041;-77
2022/05/01 04:39:08;;;;;;;3.30;2.42;;;15.20;96.70;;;;;;5052579;28;20429;-77
2022/05/01 04:41:38;;;;;;;4.05;2.20;;;15.30;96.70;;;;;;5056815;28;20053;-77
2022/05/01 04:44:07;;;;;;;5.85;2.10;;;15.30;96.70;;;;;;5073913;28;20377;-77
2022/05/01 04:46:35;;;;;;;3.15;2.00;;;15.20;96.70;;;;;;5070565;28;20454;-78
2022/05/01 04:49:03;;;;;;;4.30;2.20;;;15.10;96.70;;;;;;5058407;28;20041;-77
2022/05/01 04:51:31;;;;;;;2.75;1.95;;;15.10;96.70;;;;;;5071922;28;20049;-79
2022/05/01 04:53:59;;;;;;;3.97;1.83;;;15.10;96.70;;;;;;5070721;28;20045;-77
2022/05/01 04:59:16;;;;;;;3.85;1.92;;;15.10;96.70;;;;;;5073729;28;20486;-77
2022/05/01 05:01:44;;;;;;;2.42;2.05;;;15.20;96.70;;;;;;5052754;28;20045;-77
2022/05/01 05:04:17;;;;;;;3.38;2.50;;;15.30;96.70;;;;;;5061101;28;20406;-77
2022/05/01 05:06:45;;;;;;;4.72;2.20;;;15.20;96.70;;;;;;5053020;28;20841;-77
2022/05/01 05:12:03;;;;;;;3.58;2.10;;;15.20;96.70;;;;;;5056346;28;20049;-77
2022/05/01 05:14:33;;;;;;;4.10;1.73;;;15.00;96.70;;;;;;5068518;28;20456;-77
2022/05/01 05:17:06;;;;;;;3.08;2.38;;;15.10;96.70;;;;;;5058914;28;20383;-77
2022/05/01 05:19:35;;;;;;;3.97;2.58;;;15.30;96.70;;;;;;5061044;28;20049;-77
2022/05/01 05:22:03;;;;;;;6.22;2.50;;;15.10;96.70;;;;;;5052107;28;20053;-77
2022/05/01 05:24:31;;;;;;;3.75;2.65;;;15.10;96.70;;;;;;5068273;28;20056;-77
2022/05/01 05:26:59;;;;;;;4.40;2.63;;;15.30;96.70;;;;;;5074353;28;20064;-77
2022/05/01 05:29:28;;;;;;;6.68;3.58;;;15.20;96.70;;;;;;5038757;28;20049;-77
2022/05/01 05:31:57;;;;;;;6.40;4.68;;;15.20;96.70;;;;;;5057118;28;20072;-77
2022/05/01 05:34:26;;;;;;;6.85;4.53;;;15.30;96.70;;;;;;5053290;28;20052;-77
2022/05/01 05:36:54;;;;;;;10.30;5.65;;;15.30;96.70;;;;;;5052659;28;20092;-77
2022/05/01 05:39:22;;;;;;;6.00;3.72;;;15.30;96.70;;;;;;5049434;28;20045;-78
2022/05/01 05:41:50;;;;;;;4.95;3.13;;;15.30;96.70;;;;;;5054464;28;20136;-77
2022/05/01 05:44:18;;;;;;;4.65;3.58;;;15.30;96.70;;;;;;5053952;28;20143;-77
2022/05/01 05:46:46;;;;;;;5.18;3.25;;;15.50;96.70;;;;;;5064110;28;20045;-79
2022/05/01 05:49:16;;;;;;;7.30;3.88;;;15.50;96.70;;;;;;5057438;28;20056;-77
2022/05/01 05:51:45;;;;;;;4.82;3.53;;;15.60;96.70;;;;;;5049849;28;20388;-77
2022/05/01 05:54:13;;;;;;;5.80;3.65;;;15.50;96.70;;;;;;5054796;28;20040;-77
2022/05/01 05:56:41;;;;;;;6.13;3.72;;;15.50;96.70;;;;;;5061752;28;20040;-77
2022/05/01 05:59:09;;;;;;;4.15;3.10;;;15.50;96.70;;;;;;5050113;28;20191;-77
2022/05/01 06:01:37;;;;;;;6.40;4.00;;;15.40;96.70;;;;;;5053794;28;20422;-77
2022/05/01 06:04:05;;;;;;;5.25;4.13;;;15.40;96.70;;;;;;5050807;28;20076;-77
2022/05/01 06:06:35;;;;;;;9.00;4.85;;;15.40;96.70;;;;;;5067019;28;20037;-78
2022/05/01 06:09:03;;;;;;;9.23;5.60;;;15.50;96.70;;;;;;5056005;28;20071;-77
2022/05/01 06:11:31;;;;;;;8.35;4.72;;;15.60;96.70;;;;;;5050859;28;20410;-77
2022/05/01 06:13:59;;;;;;;5.45;4.15;;;15.60;96.70;;;;;;5051225;28;20053;-77
2022/05/01 06:16:27;;;;;;;5.53;4.70;;;15.60;96.70;;;;;;5054345;28;20041;-77
2022/05/01 06:18:55;;;;;;;8.30;4.65;;;15.60;96.70;;;;;;5052832;28;20040;-77
2022/05/01 06:21:23;;;;;;;6.55;4.85;;;15.60;96.70;;;;;;5051124;28;20044;-76
2022/05/01 06:23:53;;;;;;;6.25;4.75;;;15.60;96.70;;;;;;5071546;28;20860;-77
2022/05/01 06:26:21;;;;;;;5.95;4.50;;;15.70;96.70;;;;;;5059854;28;20117;-77
2022/05/01 06:28:53;;;;;;;7.80;4.60;;;15.80;96.70;;;;;;5054393;28;20518;-77
2022/05/01 06:31:21;;;;;;;7.28;4.95;;;15.80;96.70;;;;;;5050313;28;20041;-77
2022/05/01 06:33:49;;;;;;;5.43;4.72;;;15.70;96.70;;;;;;5055208;28;20044;-77
2022/05/01 06:36:17;;;;;;;8.32;5.63;;;15.90;96.70;;;;;;5071473;28;20044;-77
2022/05/01 06:38:46;;;;;;;8.02;4.82;;;15.90;96.70;;;;;;5052954;28;20049;-78
2022/05/01 06:41:16;;;;;;;6.80;5.60;;;16.00;96.70;;;;;;5057674;28;20501;-77
2022/05/01 06:43:44;;;;;;;5.78;4.47;;;15.90;96.70;;;;;;5048966;28;20054;-78
2022/05/01 06:46:13;;;;;;;7.10;3.85;;;16.10;96.70;;;;;;5069180;28;20069;-77
2022/05/01 06:48:41;;;;;;;5.10;4.30;;;16.20;96.70;;;;;;5056781;28;20041;-77
2022/05/01 06:51:09;;;;;;;5.55;4.50;;;16.20;96.70;;;;;;5058700;28;20047;-77
2022/05/01 06:53:37;;;;;;;7.32;4.47;;;16.20;96.70;;;;;;5049278;28;20045;-78
2022/05/01 06:56:05;;;;;;;5.85;4.57;;;16.30;96.70;;;;;;5048344;28;20044;-77
2022/05/01 06:58:35;;;;;;;5.72;4.88;;;16.30;96.70;;;;;;5047322;28;20045;-77
2022/05/01 07:01:02;;;;;;;5.18;4.13;;;16.40;96.70;;;;;;5050145;28;20041;-77
2022/05/01 07:03:30;;;;;;;6.32;4.90;;;16.40;96.70;;;;;;5048022;28;20149;-77
2022/05/01 07:06:00;;;;;;;7.20;4.53;;;16.50;96.70;;;;;;5053322;28;20067;-77
2022/05/01 07:08:28;;;;;;;6.03;4.35;;;16.50;96.70;;;;;;5054364;28;20052;-77
2022/05/01 07:10:56;;;;;;;6.60;4.00;;;16.50;96.70;;;;;;5054862;28;20037;-77
2022/05/01 07:13:24;;;;;;;5.93;4.53;;;16.50;96.70;;;;;;5051028;28;20054;-77
2022/05/01 07:15:54;;;;;;;7.05;4.28;;;16.40;96.70;;;;;;5049885;28;20056;-77
2022/05/01 07:18:23;;;;;;;5.70;4.00;;;16.50;96.70;;;;;;5038940;28;20048;-77
2022/05/01 07:20:50;;;;;;;5.38;4.18;;;16.50;96.70;;;;;;5066797;28;20047;-78
2022/05/01 07:23:22;;;;;;;6.43;4.00;;;16.60;96.70;;;;;;5060243;28;20041;-77
2022/05/01 07:25:56;;;;;;;5.65;4.30;;;16.70;96.70;;;;;;5051198;28;20056;-77
2022/05/01 07:28:24;;;;;;;5.63;4.55;;;16.90;96.70;;;;;;5054994;28;20045;-77
2022/05/01 07:30:53;;;;;;;5.10;4.20;;;16.80;96.70;;;;;;5051400;28;20037;-77
2022/05/01 07:33:22;;;;;;;7.03;4.70;;;16.70;96.70;;;;;;5057107;28;20053;-77
2022/05/01 07:35:50;;;;;;;5.88;4.13;;;16.60;96.70;;;;;;5049257;28;20123;-78
2022/05/01 07:38:18;;;;;;;6.95;4.22;;;16.60;96.70;;;;;;5052688;28;20032;-78
2022/05/01 07:40:51;;;;;;;5.15;3.78;;;16.70;96.70;;;;;;5067170;28;20528;-78
2022/05/01 07:43:19;;;;;;;6.63;3.83;;;16.70;96.70;;;;;;5047888;28;20132;-76
2022/05/01 07:45:47;;;;;;;6.72;4.18;;;16.70;96.70;;;;;;5040140;28;20053;-78
2022/05/01 07:48:16;;;;;;;5.55;4.60;;;16.70;96.70;;;;;;5050894;28;20114;-77
2022/05/01 07:50:44;;;;;;;8.85;4.68;;;16.70;96.70;;;;;;5064427;28;20398;-77
2022/05/01 07:53:13;;;;;;;6.13;4.20;;;16.60;96.70;;;;;;5055893;28;21484;-77
2022/05/01 07:55:41;;;;;;;4.07;3.70;;;16.60;96.70;;;;;;5049510;28;20572;-77
2022/05/01 07:58:08;;;;;;;4.85;4.18;;;16.70;96.70;;;;;;5051143;28;20075;-75
2022/05/01 08:00:36;;;;;;;5.90;4.47;;;16.60;96.70;;;;;;5067072;28;20040;-81
2022/05/01 08:05:52;;;;;;;7.97;4.57;;;16.90;96.70;;;;;;5052837;28;20066;-77
2022/05/01 08:08:20;;;;;;;6.85;4.78;;;17.10;96.70;;;;;;5056392;28;20041;-78
2022/05/01 08:10:48;;;;;;;7.05;4.53;;;17.10;96.70;;;;;;5053391;28;20045;-77
2022/05/01 08:13:16;;;;;;;5.85;4.45;;;17.20;96.70;;;;;;5049414;28;20049;-78
2022/05/01 08:15:44;;;;;;;5.60;4.72;;;17.30;96.70;;;;;;5052688;28;20468;-79
2022/05/01 08:21:10;;;;;;;6.00;5.37;;;17.40;96.70;;;;;;5053508;28;20041;-79
2022/05/01 08:23:41;;;;;;;5.43;4.38;;;17.60;96.70;;;;;;5049587;28;20308;-80
2022/05/01 08:26:11;;;;;;;7.78;5.20;;;17.70;96.70;;;;;;5060428;28;20139;-82
2022/05/01 08:28:40;;;;;;;8.45;6.32;;;17.70;96.70;;;;;;5065451;28;20123;-81
2022/05/01 08:31:08;;;;;;;8.57;6.90;;;17.80;96.70;;;;;;5052917;28;20044;-82
2022/05/01 08:33:37;;;;;;;12.25;8.93;;;17.90;96.70;;;;;;5067250;28;20056;-82
2022/05/01 08:36:07;;;;;;;11.95;8.88;;;17.90;96.70;;;;;;5082920;28;20044;-81
2022/05/01 08:38:37;;;;;;;11.88;8.68;;;17.90;96.70;;;;;;5077194;28;20057;-82
2022/05/01 08:41:09;;;;;;;11.60;9.27;;;18.00;96.70;;;;;;5065137;28;20036;-79
2022/05/01 08:43:37;;;;;;;10.45;8.63;;;18.20;96.70;;;;;;5072437;28;20059;-79
2022/05/01 08:46:27;;;;;;;9.93;7.47;;;18.40;96.70;;;;;;5068152;28;20959;-79
2022/05/01 08:49:03;;;;;;;9.68;8.20;;;18.50;96.70;;;;;;5068700;28;20086;-79
2022/05/01 08:51:34;;;;;;;9.95;8.07;;;18.70;96.70;;;;;;5053239;28;20828;-81
2022/05/01 08:54:05;;;;;;;10.15;7.60;;;18.90;96.70;;;;;;5055705;28;20059;-80
2022/05/01 08:56:34;;;;;;;7.75;6.60;;;19.10;96.70;;;;;;5058370;28;20041;-83
2022/05/01 08:59:09;;;;;;;8.77;6.22;;;19.20;96.70;;;;;;5060590;28;20052;-83
2022/05/01 09:01:38;;;;;;;8.07;5.60;;;19.20;96.70;;;;;;5070635;28;20044;-82
2022/05/01 09:04:08;;;;;;;9.40;5.35;;;19.30;96.70;;;;;;5058961;28;20044;-82
2022/05/01 09:06:40;;;;;;;7.30;5.75;;;19.40;96.70;;;;;;5050667;28;20636;-84
2022/05/01 09:09:09;;;;;;;6.78;5.28;;;19.60;96.70;;;;;;5066155;28;20684;-83
2022/05/01 09:14:26;;;;;;;7.72;5.38;;;19.60;96.70;;;;;;5059772;28;20040;-84
2022/05/01 09:17:10;;;;;;;8.05;4.97;;;19.60;96.70;;;;;;5056929;28;20033;-81
2022/05/01 09:19:42;;;;;;;6.07;4.80;;;19.60;96.70;;;;;;5059318;28;20048;-81
2022/05/01 09:22:15;;;;;;;8.98;5.05;;;19.70;96.70;;;;;;5051370;28;20089;-82
2022/05/01 09:24:43;;;;;;;5.55;4.05;;;19.80;96.70;;;;;;5057364;28;20040;-82
2022/05/01 09:27:27;;;;;;;6.78;4.00;;;20.00;96.70;;;;;;5061142;28;20044;-81
2022/05/01 09:30:12;;;;;;;5.43;4.30;;;20.10;96.70;;;;;;5040890;28;20056;-80
2022/05/01 09:32:42;;;;;;;5.97;4.45;;;20.20;96.70;;;;;;5046290;28;20037;-82
2022/05/01 09:35:15;;;;;;;6.13;3.40;;;20.20;96.70;;;;;;5057019;28;20053;-83
2022/05/01 09:37:45;;;;;;;4.93;3.35;;;20.20;96.70;;;;;;5055622;28;20049;-84
2022/05/01 09:40:29;;;;;;;6.10;3.45;;;20.10;96.70;;;;;;5054289;28;20068;-82
2022/05/01 09:42:58;;;;;;;5.18;3.60;;;20.20;96.70;;;;;;5050321;28;20144;-83
2022/05/01 09:45:33;;;;;;;5.20;3.45;;;20.00;96.70;;;;;;5058442;28;20041;-81
2022/05/01 09:48:22;;;;;;;3.08;2.63;;;20.00;96.70;;;;;;5073551;28;20041;-83
2022/05/01 09:50:56;;;;;;;3.53;2.83;;;20.10;96.70;;;;;;5056830;28;20048;-82
2022/05/01 09:53:41;;;;;;;3.70;3.08;;;20.20;96.70;;;;;;5044510;28;20044;-83
2022/05/01 09:56:09;;;;;;;4.50;3.70;;;20.20;96.70;;;;;;5053904;28;20071;-80
2022/05/01 09:58:43;;;;;;;4.63;4.05;;;20.10;96.70;;;;;;5037268;28;20037;-86
2022/05/01 10:01:14;;;;;;;4.22;3.83;;;20.20;96.70;;;;;;5054270;28;20053;-80
2022/05/01 10:03:47;;;;;;;6.50;4.07;;;20.20;96.70;;;;;;5051361;28;20053;-82
2022/05/01 10:06:16;;;;;;;8.13;4.57;;;20.40;96.70;;;;;;5049453;28;20056;-80
2022/05/01 10:08:46;;;;;;;7.13;4.47;;;20.50;96.70;;;;;;5058134;28;20037;-80
2022/05/01 10:11:17;;;;;;;7.80;4.43;;;20.60;96.70;;;;;;5059582;28;20040;-82
2022/05/01 10:13:48;;;;;;;6.03;4.57;;;20.60;96.70;;;;;;5052835;28;20068;-80
2022/05/01 10:16:18;;;;;;;5.18;4.63;;;20.50;96.70;;;;;;5052275;28;20055;-80
2022/05/01 10:18:54;;;;;;;7.85;4.82;;;20.60;96.70;;;;;;5056844;28;20049;-81
2022/05/01 10:21:46;;;;;;;7.53;4.68;;;20.70;96.70;;;;;;5057386;28;20454;-79
2022/05/01 10:24:16;;;;;;;6.43;5.18;;;20.70;96.70;;;;;;5056046;28;20040;-81
2022/05/01 10:26:51;;;;;;;6.63;5.18;;;20.80;96.70;;;;;;5063171;28;20119;-79
2022/05/01 10:32:20;;;;;;;5.55;4.93;;;20.80;96.70;;;;;;5079268;28;20498;-79
2022/05/01 10:32:52;;;;;;;5.82;4.53;;;20.90;96.70;;;;;;5066406;28;20522;-79
2022/05/01 10:35:48;;;;;;;7.47;4.72;;;21.00;96.70;;;;;;5058117;28;20240;-79
2022/05/01 10:38:23;;;;;;;5.90;4.32;;;21.10;96.70;;;;;;5048801;28;20549;-79
2022/05/01 10:40:55;;;;;;;7.05;4.57;;;21.10;96.70;;;;;;5083139;28;20072;-79
2022/05/01 10:43:26;;;;;;;6.72;4.68;;;21.20;96.70;;;;;;5066468;28;20072;-79
2022/05/01 10:45:55;;;;;;;6.72;4.82;;;21.30;96.70;;;;;;5059764;28;20044;-79
2022/05/01 10:48:35;;;;;;;5.70;4.47;;;21.30;96.70;;;;;;5062027;28;20072;-80
2022/05/01 10:51:40;;;;;;;5.70;4.43;;;21.50;96.70;;;;;;5064421;28;20128;-81
2022/05/01 10:54:35;;;;;;;8.50;4.72;;;21.40;96.70;;;;;;5072415;28;21123;-80
2022/05/01 10:57:15;;;;;;;5.25;4.75;;;21.60;96.70;;;;;;5059712;28;20045;-80
2022/05/01 10:59:46;;;;;;;8.88;4.80;;;21.70;96.70;;;;;;5050187;28;20242;-80
2022/05/01 11:02:22;;;;;;;7.28;4.63;;;21.70;96.70;;;;;;5079433;28;20067;-80
2022/05/01 11:04:52;;;;;;;7.07;4.80;;;21.60;96.70;;;;;;5060723;28;20064;-81
2022/05/01 11:07:22;;;;;;;14.77;5.55;;;21.60;96.70;;;;;;5054834;28;20047;-81
2022/05/01 11:09:51;;;;;;;7.18;4.30;;;21.50;96.70;;;;;;5053071;28;20140;-81
2022/05/01 11:12:22;;;;;;;25.92;5.43;;;21.60;96.70;;;;;;5057684;28;20045;-86
2022/05/01 11:14:53;;;;;;;7.72;4.60;;;21.60;96.70;;;;;;5058274;28;20662;-85
2022/05/01 11:18:00;;;;;;;8.35;4.72;;;21.60;96.70;;;;;;5061554;28;20041;-89
2022/05/01 11:20:34;;;;;;;6.65;5.15;;;21.60;96.70;;;;;;5055346;28;20510;-80
2022/05/01 11:23:31;;;;;;;6.43;4.70;;;21.30;96.70;;;;;;5054544;28;20041;-79
2022/05/01 11:26:08;;;;;;;;;;;21.10;96.70;;;;;;5041247;28;20564;-81
2022/05/01 11:28:52;;;;;;;5.20;4.60;;;20.90;96.70;;;;;;5067389;28;19959;-90
2022/05/01 11:31:52;;;;;;;6.32;4.60;;;20.80;96.70;;;;;;5081280;28;20052;-86
2022/05/01 11:34:37;;;;;;;5.78;4.72;;;20.70;96.70;;;;;;5071627;28;20426;-87
2022/05/01 11:37:07;;;;;;;6.53;4.78;;;20.70;96.70;;;;;;5066263;28;20053;-85
2022/05/01 11:40:24;;;;;;;6.82;4.63;;;20.70;96.70;;;;;;5065254;28;20044;-83
2022/05/01 11:43:12;;;;;;;7.22;4.65;;;20.70;96.70;;;;;;5074551;28;20132;-87
2022/05/01 11:45:42;;;;;;;8.07;4.20;;;20.80;96.70;;;;;;5084288;28;20517;-88
2022/05/01 11:48:18;;;;;;;5.45;4.32;;;20.80;96.70;;;;;;5073282;28;20657;-93
2022/05/01 11:50:51;;;;;;;5.18;4.18;;;20.90;96.70;;;;;;5060481;28;20075;-83
2022/05/01 11:53:22;;;;;;;6.60;4.60;;;21.00;96.70;;;;;;5069931;28;20398;-81
2022/05/01 12:04:32;;;;;;;6.25;4.40;;;21.40;96.70;;;;;;5057318;28;20583;-76
2022/05/01 12:07:02;;;;;;;6.32;4.15;;;21.60;96.70;;;;;;5053058;28;20911;-77
2022/05/01 12:09:34;;;;;;;5.45;4.32;;;21.60;96.70;;;;;;5052732;28;20494;-77
2022/05/01 12:12:04;;;;;;;5.68;4.55;;;21.80;96.70;;;;;;5069027;28;20044;-77
2022/05/01 12:14:32;;;;;;;5.80;4.30;;;22.10;96.70;;;;;;5045783;28;20052;-76
2022/05/01 12:17:07;;;;;;;6.43;3.90;;;22.40;96.70;;;;;;5056366;28;20068;-76
2022/05/01 12:19:37;;;;;;;5.72;4.00;;;22.60;96.70;;;;;;5040655;28;20090;-78
2022/05/01 12:22:06;;;;;;;5.25;4.07;;;22.80;96.70;;;;;;5051002;28;20162;-77
2022/05/01 12:24:35;;;;;;;5.07;4.10;;;22.70;96.20;;;;;;5052950;28;20441;-77
2022/05/01 12:27:04;;;;;;;6.95;4.50;;;22.70;96.50;;;;;;5054958;28;20490;-77
2022/05/01 12:29:33;;;;;;;6.18;3.83;;;22.60;96.70;;;;;;5059237;28;20041;-78
2022/05/01 12:32:07;;;;;;;12.05;4.18;;;22.40;96.40;;;;;;5050828;28;20043;-77
2022/05/01 12:34:38;;;;;;;5.75;3.38;;;22.30;96.00;;;;;;5068920;28;20126;-78
2022/05/01 12:37:11;;;;;;;6.18;3.95;;;22.40;94.70;;;;;;5062035;28;20071;-79
2022/05/01 12:39:40;;;;;;;4.28;3.47;;;22.30;94.80;;;;;;5048086;28;20044;-78
2022/05/01 12:45:13;;;;;;;3.78;3.38;;;22.00;95.30;;;;;;5067844;28;20138;-80
2022/05/01 12:47:44;;;;;;;4.85;2.97;;;22.00;95.30;;;;;;5052172;28;20049;-80
2022/05/01 12:50:26;;;;;;;4.75;3.00;;;21.90;95.60;;;;;;5054480;28;20048;-78
2022/05/01 12:52:59;;;;;;;5.35;4.05;;;21.80;96.70;;;;;;5058178;28;20045;-82
2022/05/01 12:55:33;;;;;;;3.25;2.40;;;21.80;96.70;;;;;;5053146;28;20048;-79
2022/05/01 12:58:02;;;;;;;2.25;1.90;;;21.80;96.60;;;;;;5051786;28;20044;-81
2022/05/01 13:00:41;;;;;;;2.55;1.98;;;21.80;96.70;;;;;;5057868;28;20055;-78
2022/05/01 13:03:29;;;;;;;2.53;1.58;;;21.70;96.10;;;;;;5050291;28;20048;-79
2022/05/01 13:06:03;;;;;;;2.17;1.42;;;21.60;96.40;;;;;;5067897;28;20547;-78
2022/05/01 13:08:34;;;;;;;3.85;1.33;;;21.50;96.70;;;;;;5065891;28;20044;-82
2022/05/01 13:11:10;;;;;;;2.72;1.40;;;21.40;96.70;;;;;;5081330;28;20048;-80
2022/05/01 13:13:50;;;;;;;3.33;1.70;;;21.10;96.70;;;;;;5063718;28;20048;-80
2022/05/01 13:16:22;;;;;;;1.33;1.13;;;21.00;96.50;;;;;;5072681;28;20139;-79
2022/05/01 13:18:54;;;;;;;1.83;1.10;;;20.80;96.60;;;;;;5078717;28;20172;-88
2022/05/01 13:21:26;;;;;;;2.05;1.40;;;20.60;95.90;;;;;;5073627;28;20057;-89
2022/05/01 13:23:58;;;;;;;3.38;1.13;;;20.60;96.60;;;;;;5082355;28;20063;-89
2022/05/01 13:26:33;;;;;;;4.07;1.35;;;20.60;96.20;;;;;;5059858;28;20043;-89
2022/05/01 13:29:01;;;;;;;2.17;1.30;;;20.60;96.70;;;;;;5068378;28;20037;-91
2022/05/01 13:38:53;;;;;;;2.78;1.50;;;20.60;96.70;;;;;;4914091;29;20216;-82
2022/05/01 13:47:12;;;;;;;2.30;1.60;;;20.30;96.70;;;;;;4914740;29;20142;-82
2022/05/01 13:49:42;;;;;;;2.92;1.70;;;20.30;96.70;;;;;;4913090;29;20458;-80
2022/05/01 13:52:12;;;;;;;4.85;2.40;;;20.20;96.70;;;;;;4905195;29;20127;-88
2022/05/01 13:54:48;;;;;;;3.17;1.73;;;20.20;96.70;;;;;;4894556;29;20501;-83
2022/05/01 13:57:19;;;;;;;4.03;1.83;;;20.30;96.70;;;;;;4912935;29;20152;-83
2022/05/01 13:59:48;;;;;;;3.40;1.83;;;20.20;96.70;;;;;;4897142;29;20091;-84